Latest Weather Observations for Ceduna

IDS60801

Issued at 10:31 am CST Thursday 5 May 2016 (issued every 30 minutes, with the page automatically refreshed every 10 minutes)

About weather observations | Map of weather stations | Latest weather observations for SA | Other Formats
Station Details ID: 018012 Name: CEDUNA AMO Lat: -32.13 Lon: 133.70 Height: 15.3 m
Data from the previous 72 hours. | See also: Recent months at Ceduna
Date/Time
CST
Temp
°C
App
Temp
°C
Dew
Point
Rel
Hum
%
Delta-T
°C
Wind Press
QNH
hPa
Press
MSL
hPa
Rain
since 9 am
mm
Dir
 
Spd
km/h
Gust
km/h
Spd
kts
Gust
kts
05/10:30am 24.8 18.4 9.5 38 8.4 N 33 43 18 23 1013.8 1013.8 0.0
05/10:00am 23.4 17.3 9.8 42 7.4 N 32 41 17 22 1014.1 1014.1 0.0
05/09:30am 21.0 16.8 11.1 53 5.4 N 24 32 13 17 1014.4 1014.4 0.0
05/09:00am 18.9 14.7 11.2 61 4.2 N 24 33 13 18 1014.4 1014.4 0.2
05/08:30am 16.7 12.9 11.2 70 3.0 N 22 30 12 16 1014.3 1014.3 0.2
05/08:00am 14.6 12.0 10.8 78 2.0 N 15 20 8 11 1014.1 1014.1 0.2
05/07:30am 12.7 11.1 10.1 84 1.3 N 9 13 5 7 1014.1 1014.1 0.2
05/07:00am 12.1 10.3 9.5 84 1.3 N 9 15 5 8 1014.0 1014.0 0.2
05/06:30am 12.2 10.1 9.8 85 1.2 N 11 15 6 8 1013.7 1013.7 0.2
05/06:00am 12.2 10.5 9.9 86 1.2 NNE 9 13 5 7 1013.7 1013.7 0.2
05/05:30am 12.2 9.8 10.1 87 1.1 NNE 13 17 7 9 1013.6 1013.6 0.2
05/05:00am 11.0 8.5 9.8 92 0.6 NNE 13 17 7 9 1013.5 1013.5 0.2
05/04:30am 10.9 8.8 9.7 92 0.6 NE 11 13 6 7 1013.5 1013.5 0.2
05/04:00am 11.1 9.0 9.9 92 0.6 NE 11 13 6 7 1013.7 1013.7 0.2
05/03:30am 11.5 9.2 10.4 93 0.6 NE 13 17 7 9 1014.0 1014.0 0.2
05/03:00am 11.0 9.3 9.9 93 0.6 NE 9 13 5 7 1014.1 1014.1 0.2
05/02:30am 11.4 9.8 10.1 92 0.7 NE 9 11 5 6 1014.4 1014.4 0.2
05/02:00am 11.9 8.9 10.6 92 0.7 NE 17 19 9 10 1014.5 1014.5 0.2
05/01:30am 11.2 8.8 10.1 93 0.6 NE 13 15 7 8 1014.7 1014.7 0.2
05/01:00am 11.6 8.5 10.3 92 0.7 NE 17 19 9 10 1015.0 1015.0 0.2
05/12:30am 11.8 8.4 10.7 93 0.6 NE 19 20 10 11 1015.2 1015.2 0.0
05/12:00am 11.6 8.6 10.5 93 0.6 NE 17 19 9 10 1015.2 1015.2 0.0
 
Date/Time
CST
Temp
°C
App
Temp
°C
Dew
Point
Rel
Hum
%
Delta-T
°C
Wind Press
QNH
hPa
Press
MSL
hPa
Rain
since 9 am
mm
Dir
 
Spd
km/h
Gust
km/h
Spd
kts
Gust
kts
04/11:30pm 11.8 8.9 10.9 94 0.5 NE 17 19 9 10 1015.6 1015.6 0.0
04/11:00pm 11.4 10.0 10.9 97 0.3 NE 9 13 5 7 1015.9 1015.9 0.0
04/10:30pm 11.2 9.2 10.3 94 0.5 ENE 11 13 6 7 1016.2 1016.2 0.0
04/10:00pm 12.0 8.8 11.1 94 0.5 NE 19 19 10 10 1016.3 1016.3 0.0
04/09:30pm 12.1 9.3 11.3 95 0.4 NE 17 19 9 10 1016.4 1016.4 0.0
04/09:00pm 12.0 9.5 11.2 95 0.4 NE 15 17 8 9 1016.5 1016.5 0.0
04/08:30pm 12.7 10.1 11.9 95 0.4 ENE 17 17 9 9 1016.6 1016.6 0.0
04/08:00pm 12.9 11.3 11.6 92 0.7 ENE 11 13 6 7 1016.7 1016.7 0.0
04/07:30pm 13.8 12.2 12.7 93 0.6 E 13 15 7 8 1016.7 1016.7 0.0
04/07:00pm 14.8 14.4 13.0 89 1.0 ESE 7 9 4 5 1016.5 1016.5 0.0
04/06:30pm 15.7 15.4 12.6 82 1.7 S 6 7 3 4 1016.2 1016.2 0.0
04/06:00pm 17.5 15.7 14.4 82 1.8 SW 17 20 9 11 1015.8 1015.8 0.0
04/05:30pm 18.4 16.5 13.1 71 3.0 SW 15 17 8 9 1015.7 1015.7 0.0
04/05:00pm 19.3 16.6 11.8 62 4.1 SSW 17 20 9 11 1015.6 1015.6 0.0
04/04:30pm 19.6 16.6 11.9 61 4.3 SSW 19 22 10 12 1015.5 1015.5 0.0
04/04:00pm 19.7 16.5 12.0 61 4.3 SW 20 24 11 13 1015.6 1015.6 0.0
04/03:30pm 20.1 17.7 13.8 67 3.6 SW 19 26 10 14 1015.7 1015.7 0.0
04/03:00pm 20.2 18.2 13.9 67 3.6 SW 17 22 9 12 1015.8 1015.8 0.0
04/02:30pm 19.6 17.1 13.5 68 3.5 SW 19 26 10 14 1015.9 1015.9 0.0
04/02:00pm 20.4 17.8 12.1 59 4.6 W 17 24 9 13 1016.2 1016.2 0.0
04/01:30pm 20.7 18.0 12.9 61 4.4 W 19 24 10 13 1016.6 1016.6 0.0
04/01:00pm 20.6 17.8 12.6 60 4.5 WNW 19 26 10 14 1017.1 1017.1 0.0
04/12:30pm 19.7 17.2 12.2 62 4.2 W 17 24 9 13 1017.6 1017.6 0.0
04/12:00pm 19.3 16.9 12.6 65 3.8 W 17 20 9 11 1018.2 1018.2 0.0
04/11:30am 19.3 17.2 12.3 64 3.9 WNW 15 19 8 10 1018.4 1018.4 0.0
04/11:00am 18.8 16.8 12.8 68 3.4 NW 15 19 8 10 1018.7 1018.7 0.0
04/10:30am 18.2 16.7 13.1 72 2.9 NW 13 17 7 9 1018.9 1018.9 0.0
04/10:00am 17.4 16.8 14.7 84 1.6 NNW 11 15 6 8 1019.0 1019.0 0.0
04/09:30am 16.2 15.5 14.4 89 1.0 NNW 11 13 6 7 1019.0 1019.0 0.0
04/09:00am 15.5 15.1 14.2 92 0.7 NNW 9 13 5 7 1018.8 1018.8 -
04/08:30am 14.5 13.5 13.5 94 0.6 N 11 13 6 7 1018.7 1018.7 -
04/08:00am 13.4 12.9 12.8 96 0.3 N 7 9 4 5 1018.5 1018.5 -
04/07:30am 12.3 10.7 11.7 96 0.3 N 11 13 6 7 1018.1 1018.1 -
04/07:00am 12.4 11.2 11.5 94 0.5 NNW 9 11 5 6 1017.7 1017.7 -
04/06:30am 13.6 12.6 12.2 91 0.8 W 9 13 5 7 1017.6 1017.6 -
04/06:00am 14.8 13.7 13.2 90 0.9 WNW 11 15 6 8 1017.1 1017.1 -
04/05:30am 14.7 13.8 13.7 94 0.6 NW 11 13 6 7 1016.9 1016.9 -
04/05:00am 14.8 14.0 14.0 95 0.5 NW 11 15 6 8 1016.8 1016.8 -
04/04:30am 14.7 14.7 14.1 96 0.3 NNW 7 9 4 5 1016.8 1016.8 -
04/04:00am 14.7 13.9 14.1 96 0.3 NNW 11 15 6 8 1016.8 1016.8 -
04/03:30am 14.6 14.2 14.1 97 0.3 NNW 9 13 5 7 1016.8 1016.8 -
04/03:00am 14.4 13.6 13.9 97 0.3 NW 11 13 6 7 1017.0 1017.0 0.0
04/02:30am 13.9 13.3 13.6 98 0.2 NW 9 11 5 6 1016.9 1016.9 -
04/02:00am 13.5 13.2 13.2 98 0.2 NNW 7 9 4 5 1016.8 1016.8 -
04/01:30am 13.1 11.9 12.8 98 0.2 NNW 11 13 6 7 1016.7 1016.7 -
04/01:00am 13.4 12.3 13.1 98 0.2 NNW 11 13 6 7 1016.8 1016.8 -
04/12:30am 13.7 12.3 13.4 98 0.2 NNW 13 19 7 10 1017.0 1017.0 -
04/12:00am 14.2 13.7 13.7 97 0.3 NW 9 13 5 7 1017.0 1017.0 -
 
Date/Time
CST
Temp
°C
App
Temp
°C
Dew
Point
Rel
Hum
%
Delta-T
°C
Wind Press
QNH
hPa
Press
MSL
hPa
Rain
since 9 am
mm
Dir
 
Spd
km/h
Gust
km/h
Spd
kts
Gust
kts
03/11:30pm 14.1 13.4 13.3 95 0.4 NNW 9 13 5 7 1017.2 1017.2 -
03/11:00pm 15.5 15.9 14.7 95 0.5 WNW 6 9 3 5 1017.5 1017.5 -
03/10:30pm 15.6 15.4 14.8 95 0.5 W 9 13 5 7 1017.7 1017.7 -
03/10:00pm 15.6 14.4 15.0 96 0.3 WSW 15 20 8 11 1017.7 1017.7 -
03/09:30pm 15.0 15.0 14.2 95 0.5 W 7 9 4 5 1017.5 1017.5 -
03/09:00pm 15.7 14.1 14.9 95 0.5 WSW 17 28 9 15 1017.5 1017.5 1.0
03/08:30pm 15.9 14.2 14.8 93 0.6 W 17 20 9 11 1017.3 1017.3 -
03/08:00pm 15.6 15.1 14.8 95 0.5 W 11 15 6 8 1017.0 1017.0 -
03/07:48pm 15.7 14.9 15.1 96 0.3 W 13 15 7 8 1017.0 1017.0 -
03/07:40pm 15.6 14.4 15.0 96 0.3 W 15 22 8 12 1016.8 1016.8 -
03/07:30pm 15.6 13.4 14.8 95 0.5 WSW 20 30 11 16 1016.8 1016.8 -
03/07:21pm 15.8 14.3 15.2 96 0.3 WSW 17 20 9 11 1016.7 1016.7 -
03/07:01pm 16.2 14.2 14.9 92 0.7 WSW 19 39 10 21 1016.4 1016.4 -
03/07:00pm 16.2 14.2 14.9 92 0.7 W 19 39 10 21 1016.4 1016.4 -
03/06:30pm 16.6 16.1 14.8 89 1.0 WSW 11 15 6 8 1015.7 1015.7 -
03/06:00pm 16.1 15.0 14.3 89 1.0 W 13 17 7 9 1015.4 1015.4 -
03/05:58pm 16.1 15.0 14.3 89 1.0 W 13 17 7 9 1015.4 1015.4 -
03/05:38pm 16.8 13.0 14.8 88 1.2 WSW 28 41 15 22 1015.3 1015.3 -
03/05:30pm 17.6 14.9 14.5 82 1.8 WSW 22 35 12 19 1015.1 1015.1 -
03/05:00pm 17.1 12.4 14.2 83 1.7 WSW 32 50 17 27 1014.9 1014.9 -
03/04:55pm 18.5 13.7 14.0 75 2.6 WSW 32 50 17 27 1014.8 1014.8 -
03/04:30pm 19.6 14.6 13.5 68 3.5 W 32 43 17 23 1014.4 1014.4 -
03/04:00pm 19.5 14.6 13.7 69 3.3 W 32 41 17 22 1014.2 1014.2 -
03/03:30pm 20.0 15.5 15.0 73 2.9 WSW 32 41 17 22 1013.8 1013.8 -
03/03:00pm 19.8 15.2 14.6 72 3.0 W 32 44 17 24 1013.5 1013.5 -
03/02:30pm 19.3 16.6 15.6 79 2.2 W 24 32 13 17 1013.2 1013.2 1.4
03/02:03pm 18.0 13.3 14.3 79 2.1 W 32 50 17 27 1013.5 1013.5 1.4
03/02:00pm 18.7 14.4 14.4 76 2.5 WSW 30 41 16 22 1013.4 1013.4 1.4
03/01:30pm 20.2 17.4 15.4 74 2.8 W 24 33 13 18 1013.4 1013.4 1.4
03/01:00pm 19.0 17.1 16.8 87 1.3 W 22 28 12 15 1013.8 1013.8 1.4
03/12:32pm 17.4 15.4 16.4 94 0.6 WNW 22 30 12 16 1014.1 1014.1 1.4
03/12:30pm 17.2 15.1 16.2 94 0.6 WNW 22 30 12 16 1014.1 1014.1 1.4
03/12:00pm 17.3 14.4 16.0 92 0.8 WSW 26 35 14 19 1014.4 1014.4 0.6
03/11:57am 17.6 14.6 15.8 89 1.1 WSW 26 35 14 19 1014.2 1014.2 0.2
03/11:30am 20.2 16.6 14.1 68 3.5 W 26 32 14 17 1014.1 1014.1 0.0
03/11:00am 18.0 15.1 14.1 78 2.2 WNW 22 30 12 16 1014.4 1014.4 0.0
03/10:30am 17.5 12.1 12.8 74 2.6 WNW 33 46 18 25 1014.5 1014.5 0.0
03/10:18am 19.6 15.2 12.8 65 3.8 WNW 28 46 15 25 1014.1 1014.1 0.0
03/10:00am 19.3 15.2 11.3 60 4.4 WNW 24 33 13 18 1013.9 1013.9 0.0
03/09:30am 18.0 13.8 11.1 64 3.7 NW 24 33 13 18 1013.9 1013.9 0.0
03/09:00am 17.6 12.7 9.8 60 4.1 NW 26 37 14 20 1013.6 1013.6 0.0
03/08:30am 15.1 11.2 8.8 66 3.2 NW 19 26 10 14 1013.5 1013.5 0.0
03/08:00am 12.0 7.7 7.1 72 2.4 NNW 19 26 10 14 1013.2 1013.2 0.0
03/07:30am 10.7 6.7 6.6 76 1.9 NNW 17 20 9 11 1013.0 1013.0 0.0
03/07:00am 10.7 6.6 6.3 74 2.1 NNW 17 24 9 13 1012.7 1012.7 0.0
03/06:30am 10.6 6.2 6.4 75 2.0 NNW 19 22 10 12 1012.6 1012.6 0.0
03/06:00am 10.4 6.4 6.5 77 1.8 NNW 17 20 9 11 1012.5 1012.5 0.0
03/05:30am 10.5 6.9 6.8 78 1.7 NNW 15 17 8 9 1012.3 1012.3 0.0
03/05:00am 10.5 6.9 6.8 78 1.7 NNW 15 17 8 9 1012.2 1012.2 0.0
03/04:30am 10.9 7.0 7.0 77 1.9 NNW 17 20 9 11 1012.0 1012.0 0.0
03/04:00am 11.0 6.8 7.5 79 1.7 NNW 19 22 10 12 1011.9 1011.9 0.0
03/03:30am 10.9 7.8 7.4 79 1.7 NNW 13 15 7 8 1012.1 1012.1 0.0
03/03:00am 10.6 7.5 7.1 79 1.7 NNW 13 17 7 9 1012.2 1012.2 0.0
03/02:30am 10.6 7.5 7.3 80 1.6 NNW 13 15 7 8 1012.6 1012.6 0.0
03/02:00am 10.5 7.7 7.0 79 1.7 NNW 11 15 6 8 1012.9 1012.9 0.0
03/01:30am 10.2 6.9 6.5 78 1.7 NNW 13 17 7 9 1013.1 1013.1 0.0
03/01:00am 10.1 6.8 6.4 78 1.7 NNW 13 17 7 9 1013.4 1013.4 0.0
03/12:30am 10.6 7.4 6.7 77 1.8 NNW 13 15 7 8 1013.5 1013.5 0.0
03/12:00am 10.7 7.1 6.8 77 1.8 NNW 15 17 8 9 1013.6 1013.6 0.0
 
Date/Time
CST
Temp
°C
App
Temp
°C
Dew
Point
Rel
Hum
%
Delta-T
°C
Wind Press
QNH
hPa
Press
MSL
hPa
Rain
since 9 am
mm
Dir
 
Spd
km/h
Gust
km/h
Spd
kts
Gust
kts
02/11:30pm 10.7 7.2 7.0 78 1.8 NNW 15 17 8 9 1013.8 1013.8 0.0
02/11:00pm 10.8 7.2 6.9 77 1.8 N 15 17 8 9 1014.1 1014.1 0.0
02/10:30pm 11.6 8.5 7.3 75 2.1 NNW 13 15 7 8 1014.6 1014.6 0.0
02/10:00pm 11.3 8.9 7.2 76 2.0 NNW 9 13 5 7 1014.7 1014.7 0.0
02/09:30pm 10.8 8.3 6.4 74 2.1 NW 9 9 5 5 1014.8 1014.8 0.0
02/09:00pm 11.8 9.1 7.3 74 2.2 NNW 11 13 6 7 1014.8 1014.8 0.0
02/08:30pm 12.7 10.7 7.2 69 2.7 NNW 7 11 4 6 1014.9 1014.9 0.0
02/08:00pm 15.8 13.3 9.7 67 3.2 WNW 13 19 7 10 1014.9 1014.9 0.0
02/07:30pm 16.5 13.2 9.7 64 3.6 W 17 24 9 13 1014.8 1014.8 0.0
02/07:00pm 16.7 13.5 10.1 65 3.5 W 17 24 9 13 1014.5 1014.5 0.0
02/06:30pm 17.3 13.2 10.0 62 3.9 W 22 30 12 16 1014.3 1014.3 0.0
02/06:00pm 17.5 13.2 10.6 64 3.7 W 24 32 13 17 1014.2 1014.2 0.0
02/05:30pm 18.2 13.5 10.8 62 4.0 WSW 26 39 14 21 1014.1 1014.1 0.0
02/05:00pm 18.6 13.3 11.2 62 4.0 WSW 30 39 16 21 1014.1 1014.1 0.0
02/04:30pm 19.1 14.3 11.7 62 4.1 WSW 28 37 15 20 1014.1 1014.1 0.0
02/04:00pm 19.4 13.7 11.7 61 4.3 WSW 33 44 18 24 1014.0 1014.0 0.0
02/03:30pm 20.2 14.7 11.7 58 4.7 WSW 32 41 17 22 1013.9 1013.9 0.0
02/03:00pm 20.0 14.9 11.8 59 4.5 WSW 30 39 16 21 1013.9 1013.9 0.0
02/02:30pm 20.3 15.5 11.8 58 4.7 WSW 28 37 15 20 1014.2 1014.2 0.0
02/02:00pm 20.7 16.0 10.8 53 5.4 SW 26 32 14 17 1014.6 1014.6 0.0
02/01:30pm 22.0 17.5 8.5 42 7.1 W 22 30 12 16 1014.9 1014.9 0.0
02/01:00pm 21.8 17.2 8.3 42 7.1 WNW 22 28 12 15 1015.5 1015.5 0.0
02/12:30pm 22.1 17.6 8.6 42 7.1 WNW 22 30 12 16 1016.0 1016.0 0.0
02/12:00pm 21.0 16.4 8.3 44 6.6 WNW 22 33 12 18 1016.4 1016.4 0.0
02/11:30am 20.6 15.8 8.9 47 6.2 WNW 24 30 13 16 1016.9 1016.9 0.0
02/11:00am 20.5 15.5 9.4 49 5.9 WNW 26 35 14 19 1017.1 1017.1 0.0

Other Formats:

Comma delimited format used in spreadsheet applications
http://www.bom.gov.au/fwo/IDS60801/IDS60801.94653.axf

JavaScript Object Notation format (JSON) in row-major order
http://www.bom.gov.au/fwo/IDS60801/IDS60801.94653.json